PRIVATE WETTERSTATION BILLIGHEIM-ALLFELD                       ZURCK
Wetterdaten: Freitag, 30.12.2016
Datum Zeit Temp. A. Temp. A. min Temp. A. max Feuchte A. Luftdruck Regen Wind Richtung Richtung Sonnenschein ET Solar Taupunkt Windchill Windben Empfang
30.12.2016 00:00 -2,1 C -2,1 C -2,0 C 92 % 1038,9 hPa 0,0 l/m 0,0 km/h (0 Bft) N 0 0 min 0,000 mm 0 W/m -3,2 C -2,1 C 0,0 km/h (0 Bft) 100 %
30.12.2016 00:10 -2,1 C -2,2 C -2,1 C 92 % 1039,0 hPa 0,0 l/m 0,0 km/h (0 Bft) N 0 0 min 0,000 mm 0 W/m -3,2 C -2,1 C 0,0 km/h (0 Bft) 99 %
30.12.2016 00:20 -2,2 C -2,2 C -2,1 C 92 % 1039,0 hPa 0,0 l/m 0,0 km/h (0 Bft) N 0 0 min 0,000 mm 0 W/m -3,3 C -2,2 C 0,0 km/h (0 Bft) 100 %
30.12.2016 00:30 -2,2 C -2,2 C -2,1 C 92 % 1039,0 hPa 0,0 l/m 0,0 km/h (0 Bft) N 0 0 min 0,000 mm 0 W/m -3,3 C -2,2 C 0,0 km/h (0 Bft) 100 %
30.12.2016 00:40 -2,3 C -2,3 C -2,2 C 92 % 1038,9 hPa 0,0 l/m 0,0 km/h (0 Bft) N-NW 337 0 min 0,000 mm 0 W/m -3,4 C -2,3 C 3,2 km/h (1 Bft) 100 %
30.12.2016 00:50 -2,5 C -2,5 C -2,3 C 92 % 1038,9 hPa 0,0 l/m 0,0 km/h (0 Bft) N 0 0 min 0,000 mm 0 W/m -3,6 C -2,5 C 0,0 km/h (0 Bft) 100 %
30.12.2016 01:00 -2,4 C -2,6 C -2,4 C 92 % 1038,9 hPa 0,0 l/m 0,0 km/h (0 Bft) N 0 0 min 0,000 mm 0 W/m -3,5 C -2,4 C 0,0 km/h (0 Bft) 100 %
30.12.2016 01:10 -2,4 C -2,4 C -2,4 C 92 % 1038,8 hPa 0,0 l/m 0,0 km/h (0 Bft) N 0 0 min 0,000 mm 0 W/m -3,5 C -2,4 C 0,0 km/h (0 Bft) 100 %
30.12.2016 01:20 -2,5 C -2,5 C -2,4 C 92 % 1038,8 hPa 0,0 l/m 0,0 km/h (0 Bft) N-NW 337 0 min 0,000 mm 0 W/m -3,6 C -2,5 C 1,6 km/h (1 Bft) 100 %
30.12.2016 01:30 -2,6 C -2,6 C -2,4 C 92 % 1038,7 hPa 0,0 l/m 0,0 km/h (0 Bft) N 0 0 min 0,000 mm 0 W/m -3,7 C -2,6 C 0,0 km/h (0 Bft) 100 %
30.12.2016 01:40 -2,7 C -2,7 C -2,6 C 92 % 1038,7 hPa 0,0 l/m 0,0 km/h (0 Bft) N 0 0 min 0,000 mm 0 W/m -3,8 C -2,7 C 0,0 km/h (0 Bft) 99 %
30.12.2016 01:50 -2,7 C -2,7 C -2,7 C 92 % 1038,7 hPa 0,0 l/m 0,0 km/h (0 Bft) N 0 0 min 0,000 mm 0 W/m -3,8 C -2,7 C 0,0 km/h (0 Bft) 100 %
30.12.2016 02:00 -2,8 C -2,8 C -2,7 C 92 % 1038,7 hPa 0,0 l/m 0,0 km/h (0 Bft) N 0 0 min 0,000 mm 0 W/m -3,9 C -2,8 C 0,0 km/h (0 Bft) 100 %
30.12.2016 02:10 -2,9 C -2,9 C -2,8 C 92 % 1038,6 hPa 0,0 l/m 0,0 km/h (0 Bft) N 0 0 min 0,000 mm 0 W/m -4,0 C -2,9 C 0,0 km/h (0 Bft) 100 %
30.12.2016 02:20 -3,0 C -3,0 C -2,9 C 92 % 1038,6 hPa 0,0 l/m 0,0 km/h (0 Bft) N 0 0 min 0,000 mm 0 W/m -4,1 C -3,0 C 0,0 km/h (0 Bft) 100 %
30.12.2016 02:30 -2,9 C -3,1 C -2,9 C 92 % 1038,5 hPa 0,0 l/m 0,0 km/h (0 Bft) N-NW 337 0 min 0,000 mm 0 W/m -4,0 C -2,9 C 3,2 km/h (1 Bft) 100 %
30.12.2016 02:40 -2,9 C -2,9 C -2,9 C 92 % 1038,5 hPa 0,0 l/m 1,6 km/h (1 Bft) N-NW 337 0 min 0,000 mm 0 W/m -4,0 C -2,9 C 6,4 km/h (2 Bft) 100 %
30.12.2016 02:50 -3,1 C -3,1 C -2,9 C 92 % 1038,5 hPa 0,0 l/m 0,0 km/h (0 Bft) N-NW 337 0 min 0,000 mm 0 W/m -4,2 C -3,1 C 4,8 km/h (1 Bft) 100 %
30.12.2016 03:00 -3,2 C -3,2 C -3,1 C 92 % 1038,4 hPa 0,0 l/m 0,0 km/h (0 Bft) N 0 0 min 0,000 mm 0 W/m -4,3 C -3,2 C 0,0 km/h (0 Bft) 100 %
30.12.2016 03:10 -3,4 C -3,4 C -3,2 C 92 % 1038,5 hPa 0,0 l/m 1,6 km/h (1 Bft) N-NW 337 0 min 0,000 mm 0 W/m -4,5 C -3,4 C 4,8 km/h (1 Bft) 90 %
30.12.2016 03:20 -3,4 C -3,4 C -3,4 C 92 % 1038,5 hPa 0,0 l/m 0,0 km/h (0 Bft) N 0 0 min 0,000 mm 0 W/m -4,5 C -3,4 C 0,0 km/h (0 Bft) 100 %
30.12.2016 03:30 -3,4 C -3,4 C -3,4 C 92 % 1038,4 hPa 0,0 l/m 0,0 km/h (0 Bft) N 0 0 min 0,000 mm 0 W/m -4,5 C -3,4 C 0,0 km/h (0 Bft) 100 %
30.12.2016 03:40 -3,4 C -3,5 C -3,4 C 92 % 1038,4 hPa 0,0 l/m 0,0 km/h (0 Bft) N 0 0 min 0,000 mm 0 W/m -4,5 C -3,4 C 0,0 km/h (0 Bft) 100 %
30.12.2016 03:50 -3,4 C -3,5 C -3,4 C 92 % 1038,4 hPa 0,0 l/m 0,0 km/h (0 Bft) N 0 0 min 0,000 mm 0 W/m -4,5 C -3,4 C 0,0 km/h (0 Bft) 100 %
30.12.2016 04:00 -3,3 C -3,4 C -3,3 C 92 % 1038,4 hPa 0,0 l/m 0,0 km/h (0 Bft) N 0 0 min 0,000 mm 0 W/m -4,4 C -3,3 C 0,0 km/h (0 Bft) 100 %
30.12.2016 04:10 -3,3 C -3,3 C -3,2 C 92 % 1038,4 hPa 0,0 l/m 0,0 km/h (0 Bft) N-NW 337 0 min 0,000 mm 0 W/m -4,4 C -3,3 C 1,6 km/h (1 Bft) 100 %
30.12.2016 04:20 -3,4 C -3,4 C -3,3 C 92 % 1038,3 hPa 0,0 l/m 0,0 km/h (0 Bft) N 0 0 min 0,000 mm 0 W/m -4,5 C -3,4 C 0,0 km/h (0 Bft) 100 %
30.12.2016 04:30 -3,6 C -3,6 C -3,4 C 92 % 1038,3 hPa 0,0 l/m 0,0 km/h (0 Bft) N-NW 337 0 min 0,000 mm 0 W/m -4,7 C -3,6 C 1,6 km/h (1 Bft) 100 %
30.12.2016 04:40 -3,7 C -3,7 C -3,6 C 92 % 1038,3 hPa 0,0 l/m 0,0 km/h (0 Bft) N 0 0 min 0,000 mm 0 W/m -4,8 C -3,7 C 0,0 km/h (0 Bft) 100 %
30.12.2016 04:50 -3,6 C -3,7 C -3,6 C 92 % 1038,3 hPa 0,0 l/m 0,0 km/h (0 Bft) N 0 0 min 0,000 mm 0 W/m -4,7 C -3,6 C 0,0 km/h (0 Bft) 100 %
30.12.2016 05:00 -3,7 C -3,7 C -3,6 C 92 % 1038,3 hPa 0,0 l/m 0,0 km/h (0 Bft) N 0 0 min 0,000 mm 0 W/m -4,8 C -3,7 C 0,0 km/h (0 Bft) 100 %
30.12.2016 05:10 -3,7 C -3,7 C -3,7 C 92 % 1038,3 hPa 0,0 l/m 0,0 km/h (0 Bft) N 0 0 min 0,000 mm 0 W/m -4,8 C -3,7 C 0,0 km/h (0 Bft) 100 %
30.12.2016 05:20 -3,7 C -3,7 C -3,7 C 92 % 1038,4 hPa 0,0 l/m 0,0 km/h (0 Bft) N 0 0 min 0,000 mm 0 W/m -4,8 C -3,7 C 0,0 km/h (0 Bft) 90 %
30.12.2016 05:30 -3,8 C -3,8 C -3,7 C 92 % 1038,4 hPa 0,0 l/m 0,0 km/h (0 Bft) N 0 0 min 0,000 mm 0 W/m -4,9 C -3,8 C 0,0 km/h (0 Bft) 100 %
30.12.2016 05:40 -3,8 C -3,8 C -3,8 C 92 % 1038,4 hPa 0,0 l/m 0,0 km/h (0 Bft) N 0 0 min 0,000 mm 0 W/m -4,9 C -3,8 C 0,0 km/h (0 Bft) 100 %
30.12.2016 05:50 -3,8 C -3,9 C -3,8 C 92 % 1038,5 hPa 0,0 l/m 0,0 km/h (0 Bft) N 0 0 min 0,000 mm 0 W/m -4,9 C -3,8 C 0,0 km/h (0 Bft) 100 %
30.12.2016 06:00 -3,8 C -3,9 C -3,8 C 92 % 1038,6 hPa 0,0 l/m 0,0 km/h (0 Bft) N 0 0 min 0,000 mm 0 W/m -4,9 C -3,8 C 0,0 km/h (0 Bft) 100 %
30.12.2016 06:10 -3,9 C -3,9 C -3,8 C 92 % 1038,6 hPa 0,0 l/m 0,0 km/h (0 Bft) N 0 0 min 0,000 mm 0 W/m -5,0 C -3,9 C 0,0 km/h (0 Bft) 100 %
30.12.2016 06:20 -4,1 C -4,1 C -3,9 C 92 % 1038,6 hPa 0,0 l/m 0,0 km/h (0 Bft) N 0 0 min 0,000 mm 0 W/m -5,2 C -4,1 C 0,0 km/h (0 Bft) 89 %
30.12.2016 06:30 -4,2 C -4,2 C -4,1 C 92 % 1038,6 hPa 0,0 l/m 0,0 km/h (0 Bft) N 0 0 min 0,000 mm 0 W/m -5,3 C -4,2 C 0,0 km/h (0 Bft) 100 %
30.12.2016 06:40 -4,4 C -4,4 C -4,3 C 92 % 1038,7 hPa 0,0 l/m 0,0 km/h (0 Bft) N 0 0 min 0,000 mm 0 W/m -5,5 C -4,4 C 0,0 km/h (0 Bft) 100 %
30.12.2016 06:50 -4,6 C -4,6 C -4,4 C 92 % 1038,6 hPa 0,0 l/m 0,0 km/h (0 Bft) N 0 0 min 0,000 mm 0 W/m -5,7 C -4,6 C 0,0 km/h (0 Bft) 100 %
30.12.2016 07:00 -4,6 C -4,6 C -4,6 C 92 % 1038,6 hPa 0,0 l/m 0,0 km/h (0 Bft) N 0 0 min 0,000 mm 0 W/m -5,7 C -4,6 C 0,0 km/h (0 Bft) 100 %
30.12.2016 07:10 -4,5 C -4,6 C -4,5 C 92 % 1038,6 hPa 0,0 l/m 0,0 km/h (0 Bft) N 0 0 min 0,000 mm 0 W/m -5,6 C -4,5 C 0,0 km/h (0 Bft) 100 %
30.12.2016 07:20 -4,4 C -4,5 C -4,4 C 92 % 1038,7 hPa 0,0 l/m 0,0 km/h (0 Bft) N-NW 337 0 min 0,000 mm 0 W/m -5,5 C -4,4 C 1,6 km/h (1 Bft) 100 %
30.12.2016 07:30 -4,4 C -4,4 C -4,4 C 92 % 1038,8 hPa 0,0 l/m 0,0 km/h (0 Bft) N-NW 337 0 min 0,000 mm 0 W/m -5,5 C -4,4 C 1,6 km/h (1 Bft) 100 %
30.12.2016 07:40 -4,4 C -4,4 C -4,4 C 92 % 1038,8 hPa 0,0 l/m 0,0 km/h (0 Bft) N 0 0 min 0,000 mm 0 W/m -5,5 C -4,4 C 0,0 km/h (0 Bft) 100 %
30.12.2016 07:50 -4,4 C -4,4 C -4,4 C 92 % 1038,8 hPa 0,0 l/m 0,0 km/h (0 Bft) N 0 0 min 0,000 mm 0 W/m -5,5 C -4,4 C 0,0 km/h (0 Bft) 100 %
30.12.2016 08:00 -4,4 C -4,4 C -4,4 C 92 % 1038,8 hPa 0,0 l/m 0,0 km/h (0 Bft) N 0 0 min 0,000 mm 0 W/m -5,5 C -4,4 C 0,0 km/h (0 Bft) 100 %
30.12.2016 08:10 -4,5 C -4,5 C -4,4 C 92 % 1038,8 hPa 0,0 l/m 0,0 km/h (0 Bft) N-NW 337 0 min 0,000 mm 0 W/m -5,6 C -4,5 C 3,2 km/h (1 Bft) 100 %
30.12.2016 08:20 -4,6 C -4,6 C -4,5 C 92 % 1038,9 hPa 0,0 l/m 0,0 km/h (0 Bft) N-NW 337 0 min 0,000 mm 0 W/m -5,7 C -4,6 C 1,6 km/h (1 Bft) 91 %
30.12.2016 08:30 -4,7 C -4,7 C -4,6 C 92 % 1039,0 hPa 0,0 l/m 0,0 km/h (0 Bft) N 0 0 min 0,000 mm 7 W/m -5,8 C -4,7 C 0,0 km/h (0 Bft) 100 %
30.12.2016 08:40 -4,7 C -4,7 C -4,7 C 92 % 1038,9 hPa 0,0 l/m 0,0 km/h (0 Bft) N 0 0 min 0,000 mm 11 W/m -5,8 C -4,7 C 0,0 km/h (0 Bft) 100 %
30.12.2016 08:50 -4,7 C -4,8 C -4,7 C 92 % 1038,8 hPa 0,0 l/m 0,0 km/h (0 Bft) N 0 0 min 0,000 mm 12 W/m -5,8 C -4,7 C 0,0 km/h (0 Bft) 100 %
30.12.2016 09:00 -4,6 C -4,7 C -4,6 C 92 % 1038,9 hPa 0,0 l/m 0,0 km/h (0 Bft) N 0 0 min 0,000 mm 16 W/m -5,7 C -4,6 C 0,0 km/h (0 Bft) 100 %
30.12.2016 09:10 -4,5 C -4,6 C -4,5 C 92 % 1039,0 hPa 0,0 l/m 0,0 km/h (0 Bft) N 0 0 min 0,000 mm 26 W/m -5,6 C -4,5 C 0,0 km/h (0 Bft) 100 %
30.12.2016 09:20 -4,3 C -4,5 C -4,3 C 92 % 1038,8 hPa 0,0 l/m 0,0 km/h (0 Bft) N 0 0 min 0,000 mm 51 W/m -5,4 C -4,3 C 0,0 km/h (0 Bft) 100 %
30.12.2016 09:30 -3,8 C -4,3 C -3,8 C 92 % 1039,0 hPa 0,0 l/m 0,0 km/h (0 Bft) N 0 0 min 0,000 mm 67 W/m -4,9 C -3,8 C 0,0 km/h (0 Bft) 89 %
30.12.2016 09:40 -3,3 C -3,7 C -3,3 C 92 % 1039,1 hPa 0,0 l/m 0,0 km/h (0 Bft) N 0 0 min 0,000 mm 100 W/m -4,4 C -3,3 C 0,0 km/h (0 Bft) 100 %
30.12.2016 09:50 -3,0 C -3,3 C -3,0 C 92 % 1039,1 hPa 0,0 l/m 0,0 km/h (0 Bft) N 0 0 min 0,000 mm 134 W/m -4,1 C -3,0 C 0,0 km/h (0 Bft) 100 %
30.12.2016 10:00 -2,8 C -3,0 C -2,8 C 92 % 1039,3 hPa 0,0 l/m 0,0 km/h (0 Bft) N 0 10 min 0,025 mm 153 W/m -3,9 C -2,8 C 0,0 km/h (0 Bft) 100 %
30.12.2016 10:10 -2,3 C -2,8 C -2,3 C 92 % 1039,3 hPa 0,0 l/m 0,0 km/h (0 Bft) N 0 10 min 0,000 mm 176 W/m -3,4 C -2,3 C 0,0 km/h (0 Bft) 100 %
30.12.2016 10:20 -1,8 C -2,2 C -1,8 C 92 % 1039,4 hPa 0,0 l/m 0,0 km/h (0 Bft) N 0 10 min 0,000 mm 195 W/m -2,9 C -1,8 C 0,0 km/h (0 Bft) 100 %
30.12.2016 10:30 -1,3 C -1,8 C -1,3 C 92 % 1039,5 hPa 0,0 l/m 0,0 km/h (0 Bft) N 0 10 min 0,000 mm 229 W/m -2,4 C -1,3 C 0,0 km/h (0 Bft) 100 %
30.12.2016 10:40 -0,8 C -1,3 C -0,8 C 92 % 1039,5 hPa 0,0 l/m 0,0 km/h (0 Bft) N 0 10 min 0,000 mm 244 W/m -1,9 C -0,8 C 0,0 km/h (0 Bft) 100 %
30.12.2016 10:50 -0,5 C -0,8 C -0,5 C 91 % 1039,5 hPa 0,0 l/m 0,0 km/h (0 Bft) N 0 10 min 0,000 mm 244 W/m -1,8 C -0,5 C 0,0 km/h (0 Bft) 99 %
30.12.2016 11:00 -0,1 C -0,5 C -0,1 C 90 % 1039,3 hPa 0,0 l/m 0,0 km/h (0 Bft) N 0 10 min 0,076 mm 253 W/m -1,5 C -0,1 C 0,0 km/h (0 Bft) 98 %
30.12.2016 11:10 0,2 C -0,1 C 0,2 C 89 % 1039,2 hPa 0,0 l/m 0,0 km/h (0 Bft) N 0 10 min 0,000 mm 262 W/m -1,4 C 0,2 C 0,0 km/h (0 Bft) 98 %
30.12.2016 11:20 0,5 C 0,3 C 0,5 C 87 % 1038,9 hPa 0,0 l/m 0,0 km/h (0 Bft) N 0 10 min 0,000 mm 271 W/m -1,4 C 0,5 C 0,0 km/h (0 Bft) 98 %
30.12.2016 11:30 0,8 C 0,5 C 0,8 C 86 % 1038,8 hPa 0,0 l/m 0,0 km/h (0 Bft) N 0 10 min 0,000 mm 278 W/m -1,3 C 0,8 C 0,0 km/h (0 Bft) 98 %
30.12.2016 11:40 0,9 C 0,8 C 0,9 C 85 % 1038,9 hPa 0,0 l/m 0,0 km/h (0 Bft) N 0 10 min 0,000 mm 279 W/m -1,3 C 0,9 C 0,0 km/h (0 Bft) 97 %
30.12.2016 11:50 1,0 C 0,9 C 1,0 C 84 % 1038,9 hPa 0,0 l/m 0,0 km/h (0 Bft) N 0 10 min 0,000 mm 283 W/m -1,4 C 1,0 C 0,0 km/h (0 Bft) 97 %
30.12.2016 12:00 1,4 C 1,0 C 1,4 C 84 % 1038,8 hPa 0,0 l/m 0,0 km/h (0 Bft) N 0 10 min 0,076 mm 287 W/m -1,0 C 1,4 C 0,0 km/h (0 Bft) 98 %
30.12.2016 12:10 1,9 C 1,4 C 1,9 C 85 % 1038,7 hPa 0,0 l/m 0,0 km/h (0 Bft) N-NW 337 10 min 0,000 mm 287 W/m -0,3 C 1,9 C 3,2 km/h (1 Bft) 97 %
30.12.2016 12:20 2,6 C 1,9 C 2,6 C 82 % 1038,4 hPa 0,0 l/m 0,0 km/h (0 Bft) N-NW 337 10 min 0,000 mm 294 W/m -0,2 C 2,6 C 3,2 km/h (1 Bft) 98 %
30.12.2016 12:30 3,0 C 2,6 C 3,1 C 80 % 1038,3 hPa 0,0 l/m 1,6 km/h (1 Bft) N-NW 337 10 min 0,000 mm 302 W/m -0,1 C 3,0 C 4,8 km/h (1 Bft) 100 %
30.12.2016 12:40 3,3 C 3,1 C 3,3 C 79 % 1038,3 hPa 0,0 l/m 0,0 km/h (0 Bft) N-NW 337 10 min 0,000 mm 244 W/m 0,0 C 3,3 C 1,6 km/h (1 Bft) 100 %
30.12.2016 12:50 3,5 C 3,3 C 3,5 C 77 % 1038,2 hPa 0,0 l/m 0,0 km/h (0 Bft) N-NW 337 10 min 0,000 mm 292 W/m -0,1 C 3,5 C 3,2 km/h (1 Bft) 97 %
30.12.2016 13:00 3,3 C 3,3 C 3,5 C 76 % 1038,1 hPa 0,0 l/m 0,0 km/h (0 Bft) N 0 10 min 0,102 mm 299 W/m -0,5 C 3,3 C 0,0 km/h (0 Bft) 98 %
30.12.2016 13:10 3,1 C 3,1 C 3,3 C 76 % 1038,1 hPa 0,0 l/m 0,0 km/h (0 Bft) N 0 10 min 0,000 mm 294 W/m -0,7 C 3,1 C 0,0 km/h (0 Bft) 96 %
30.12.2016 13:20 3,1 C 3,0 C 3,1 C 75 % 1038,1 hPa 0,0 l/m 0,0 km/h (0 Bft) N 0 10 min 0,000 mm 265 W/m -0,9 C 3,1 C 0,0 km/h (0 Bft) 98 %
30.12.2016 13:30 2,9 C 2,9 C 3,1 C 78 % 1037,9 hPa 0,0 l/m 0,0 km/h (0 Bft) N 0 10 min 0,000 mm 264 W/m -0,5 C 2,9 C 0,0 km/h (0 Bft) 98 %
30.12.2016 13:40 2,9 C 2,9 C 2,9 C 76 % 1037,9 hPa 0,0 l/m 0,0 km/h (0 Bft) N 0 10 min 0,000 mm 251 W/m -0,9 C 2,9 C 0,0 km/h (0 Bft) 98 %
30.12.2016 13:50 2,9 C 2,8 C 2,9 C 77 % 1037,9 hPa 0,0 l/m 0,0 km/h (0 Bft) N 0 10 min 0,000 mm 225 W/m -0,7 C 2,9 C 0,0 km/h (0 Bft) 98 %
30.12.2016 14:00 3,1 C 2,9 C 3,1 C 76 % 1037,7 hPa 0,0 l/m 0,0 km/h (0 Bft) N 0 10 min 0,076 mm 216 W/m -0,7 C 3,1 C 0,0 km/h (0 Bft) 97 %
30.12.2016 14:10 3,2 C 3,1 C 3,2 C 78 % 1037,7 hPa 0,0 l/m 0,0 km/h (0 Bft) N 0 10 min 0,000 mm 186 W/m -0,3 C 3,2 C 0,0 km/h (0 Bft) 87 %
30.12.2016 14:20 3,4 C 3,2 C 3,4 C 77 % 1037,4 hPa 0,0 l/m 0,0 km/h (0 Bft) N-NW 337 10 min 0,000 mm 220 W/m -0,2 C 3,4 C 1,6 km/h (1 Bft) 97 %
30.12.2016 14:30 3,5 C 3,4 C 3,5 C 76 % 1037,4 hPa 0,0 l/m 0,0 km/h (0 Bft) N 0 10 min 0,000 mm 197 W/m -0,3 C 3,5 C 0,0 km/h (0 Bft) 100 %
30.12.2016 14:40 3,4 C 3,4 C 3,6 C 76 % 1037,4 hPa 0,0 l/m 0,0 km/h (0 Bft) N-NW 337 10 min 0,000 mm 193 W/m -0,4 C 3,4 C 1,6 km/h (1 Bft) 100 %
30.12.2016 14:50 3,3 C 3,3 C 3,4 C 76 % 1037,3 hPa 0,0 l/m 0,0 km/h (0 Bft) N 0 10 min 0,000 mm 167 W/m -0,5 C 3,3 C 0,0 km/h (0 Bft) 100 %
30.12.2016 15:00 3,2 C 3,2 C 3,3 C 75 % 1037,4 hPa 0,0 l/m 0,0 km/h (0 Bft) N 0 0 min 0,051 mm 132 W/m -0,8 C 3,2 C 0,0 km/h (0 Bft) 100 %
30.12.2016 15:20 2,9 C 2,9 C 3,3 C 78 % 1037,4 hPa 0,0 l/m 0,0 km/h (0 Bft) NW 323 0 min 0,000 mm 28 W/m -0,5 C 2,9 C 1,6 km/h (1 Bft) 97 %
30.12.2016 15:30 2,8 C 2,8 C 2,9 C 79 % 1037,4 hPa 0,0 l/m 0,9 km/h (0 Bft) W 281 0 min 0,000 mm 25 W/m -0,5 C 2,8 C 4,8 km/h (1 Bft) 98 %
30.12.2016 15:40 2,6 C 2,6 C 2,8 C 80 % 1037,4 hPa 0,0 l/m 0,1 km/h (0 Bft) W 261 0 min 0,000 mm 23 W/m -0,5 C 2,6 C 1,6 km/h (1 Bft) 99 %
30.12.2016 15:51 2,2 C 2,2 C 2,6 C 80 % 1037,4 hPa 0,0 l/m 0,0 km/h (0 Bft) W 261 0 min 0,000 mm 19 W/m -0,9 C 2,2 C 0,0 km/h (0 Bft) 99 %
30.12.2016 16:00 2,1 C 2,1 C 2,2 C 82 % 1037,4 hPa 0,0 l/m 0,0 km/h (0 Bft) W 261 0 min 0,000 mm 16 W/m -0,6 C 2,1 C 0,0 km/h (0 Bft) 100 %
30.12.2016 16:10 1,8 C 1,8 C 2,1 C 82 % 1037,4 hPa 0,0 l/m 0,0 km/h (0 Bft) W 261 0 min 0,000 mm 14 W/m -0,9 C 1,8 C 0,0 km/h (0 Bft) 99 %
30.12.2016 16:20 1,6 C 1,6 C 1,8 C 82 % 1037,2 hPa 0,0 l/m 0,0 km/h (0 Bft) W 261 0 min 0,000 mm 9 W/m -1,1 C 1,6 C 0,0 km/h (0 Bft) 99 %
30.12.2016 16:30 1,4 C 1,4 C 1,6 C 82 % 1037,2 hPa 0,0 l/m 0,0 km/h (0 Bft) W 261 0 min 0,000 mm 5 W/m -1,3 C 1,4 C 0,0 km/h (0 Bft) 99 %
30.12.2016 16:40 1,1 C 1,1 C 1,4 C 83 % 1037,2 hPa 0,0 l/m 0,0 km/h (0 Bft) W 261 0 min 0,000 mm 0 W/m -1,5 C 1,1 C 0,0 km/h (0 Bft) 99 %
30.12.2016 16:50 0,9 C 0,9 C 1,1 C 83 % 1037,3 hPa 0,0 l/m 0,0 km/h (0 Bft) W 261 0 min 0,000 mm 0 W/m -1,7 C 0,9 C 0,0 km/h (0 Bft) 99 %
30.12.2016 17:00 0,6 C 0,6 C 0,9 C 83 % 1037,3 hPa 0,0 l/m 0,0 km/h (0 Bft) W 261 0 min 0,000 mm 0 W/m -1,9 C 0,6 C 0,0 km/h (0 Bft) 94 %
30.12.2016 17:10 0,2 C 0,2 C 0,6 C 84 % 1037,4 hPa 0,0 l/m 0,0 km/h (0 Bft) W 261 0 min 0,000 mm 0 W/m -2,2 C 0,2 C 0,0 km/h (0 Bft) 97 %
30.12.2016 17:20 -0,1 C -0,1 C 0,2 C 85 % 1037,3 hPa 0,0 l/m 0,0 km/h (0 Bft) W 261 0 min 0,000 mm 0 W/m -2,3 C -0,1 C 0,0 km/h (0 Bft) 100 %
30.12.2016 17:30 -0,4 C -0,4 C -0,1 C 86 % 1037,4 hPa 0,0 l/m 0,0 km/h (0 Bft) W 261 0 min 0,000 mm 0 W/m -2,4 C -0,4 C 0,0 km/h (0 Bft) 100 %
30.12.2016 17:40 -0,6 C -0,6 C -0,4 C 87 % 1037,3 hPa 0,0 l/m 0,0 km/h (0 Bft) W 261 0 min 0,000 mm 0 W/m -2,5 C -0,6 C 0,0 km/h (0 Bft) 99 %
30.12.2016 17:50 -0,8 C -0,8 C -0,6 C 87 % 1037,4 hPa 0,0 l/m 0,0 km/h (0 Bft) W 261 0 min 0,000 mm 0 W/m -2,7 C -0,8 C 0,0 km/h (0 Bft) 100 %
30.12.2016 18:00 -1,1 C -1,1 C -0,8 C 88 % 1037,3 hPa 0,0 l/m 0,0 km/h (0 Bft) W 261 0 min 0,000 mm 0 W/m -2,8 C -1,1 C 0,0 km/h (0 Bft) 100 %
30.12.2016 18:10 -1,2 C -1,2 C -1,1 C 89 % 1037,4 hPa 0,0 l/m 0,0 km/h (0 Bft) W 261 0 min 0,000 mm 0 W/m -2,8 C -1,2 C 0,0 km/h (0 Bft) 100 %
30.12.2016 18:20 -1,4 C -1,4 C -1,2 C 89 % 1037,4 hPa 0,0 l/m 0,0 km/h (0 Bft) W 261 0 min 0,000 mm 0 W/m -3,0 C -1,4 C 0,0 km/h (0 Bft) 90 %
30.12.2016 18:30 -1,6 C -1,6 C -1,4 C 89 % 1037,3 hPa 0,0 l/m 0,0 km/h (0 Bft) W 261 0 min 0,000 mm 0 W/m -3,2 C -1,6 C 0,0 km/h (0 Bft) 100 %
30.12.2016 18:40 -1,7 C -1,7 C -1,6 C 90 % 1037,5 hPa 0,0 l/m 0,0 km/h (0 Bft) W 261 0 min 0,000 mm 0 W/m -3,1 C -1,7 C 0,0 km/h (0 Bft) 99 %
30.12.2016 18:50 -1,8 C -1,8 C -1,7 C 90 % 1037,6 hPa 0,0 l/m 0,0 km/h (0 Bft) W 261 0 min 0,000 mm 0 W/m -3,2 C -1,8 C 0,0 km/h (0 Bft) 99 %
30.12.2016 19:00 -2,1 C -2,1 C -1,8 C 90 % 1037,7 hPa 0,0 l/m 0,0 km/h (0 Bft) W 261 0 min 0,000 mm 0 W/m -3,5 C -2,1 C 0,0 km/h (0 Bft) 97 %
30.12.2016 19:10 -2,4 C -2,4 C -2,1 C 90 % 1037,6 hPa 0,0 l/m 0,0 km/h (0 Bft) W 261 0 min 0,000 mm 0 W/m -3,8 C -2,4 C 0,0 km/h (0 Bft) 97 %
30.12.2016 19:20 -2,6 C -2,6 C -2,4 C 91 % 1037,6 hPa 0,0 l/m 0,0 km/h (0 Bft) W 261 0 min 0,000 mm 0 W/m -3,9 C -2,6 C 0,0 km/h (0 Bft) 98 %
30.12.2016 19:30 -2,7 C -2,7 C -2,6 C 91 % 1037,7 hPa 0,0 l/m 0,0 km/h (0 Bft) W 261 0 min 0,000 mm 0 W/m -4,0 C -2,7 C 0,0 km/h (0 Bft) 98 %
30.12.2016 19:40 -2,8 C -2,8 C -2,7 C 91 % 1037,7 hPa 0,0 l/m 0,0 km/h (0 Bft) W 261 0 min 0,000 mm 0 W/m -4,1 C -2,8 C 0,0 km/h (0 Bft) 97 %
30.12.2016 19:50 -2,9 C -2,9 C -2,8 C 91 % 1037,6 hPa 0,0 l/m 0,0 km/h (0 Bft) W 261 0 min 0,000 mm 0 W/m -4,2 C -2,9 C 0,0 km/h (0 Bft) 98 %
30.12.2016 20:00 -3,1 C -3,1 C -2,9 C 91 % 1037,5 hPa 0,0 l/m 0,0 km/h (0 Bft) W 261 0 min 0,000 mm 0 W/m -4,4 C -3,1 C 0,0 km/h (0 Bft) 98 %
30.12.2016 20:10 -3,1 C -3,2 C -3,1 C 91 % 1037,5 hPa 0,0 l/m 0,0 km/h (0 Bft) W 261 0 min 0,000 mm 0 W/m -4,4 C -3,1 C 0,0 km/h (0 Bft) 97 %
30.12.2016 20:20 -3,1 C -3,2 C -3,1 C 92 % 1037,6 hPa 0,0 l/m 0,0 km/h (0 Bft) W 261 0 min 0,000 mm 0 W/m -4,2 C -3,1 C 0,0 km/h (0 Bft) 97 %
30.12.2016 20:30 -3,1 C -3,1 C -3,1 C 92 % 1037,7 hPa 0,0 l/m 0,0 km/h (0 Bft) W 261 0 min 0,000 mm 0 W/m -4,2 C -3,1 C 0,0 km/h (0 Bft) 98 %
30.12.2016 20:40 -3,3 C -3,3 C -3,1 C 92 % 1037,7 hPa 0,0 l/m 0,0 km/h (0 Bft) W 261 0 min 0,000 mm 0 W/m -4,4 C -3,3 C 0,0 km/h (0 Bft) 97 %
30.12.2016 20:50 -3,6 C -3,6 C -3,3 C 92 % 1037,7 hPa 0,0 l/m 0,0 km/h (0 Bft) W 261 0 min 0,000 mm 0 W/m -4,7 C -3,6 C 0,0 km/h (0 Bft) 97 %
30.12.2016 21:00 -3,7 C -3,7 C -3,6 C 92 % 1037,7 hPa 0,0 l/m 0,0 km/h (0 Bft) W 261 0 min 0,000 mm 0 W/m -4,8 C -3,7 C 0,0 km/h (0 Bft) 98 %
30.12.2016 21:10 -3,8 C -3,8 C -3,7 C 92 % 1037,7 hPa 0,0 l/m 0,0 km/h (0 Bft) N 0 0 min 0,000 mm 0 W/m -4,9 C -3,8 C 0,0 km/h (0 Bft) 100 %
30.12.2016 21:20 -3,9 C -3,9 C -3,8 C 92 % 1037,7 hPa 0,0 l/m 0,0 km/h (0 Bft) N 0 0 min 0,000 mm 0 W/m -5,0 C -3,9 C 0,0 km/h (0 Bft) 100 %
30.12.2016 21:30 -4,1 C -4,1 C -3,9 C 92 % 1037,9 hPa 0,0 l/m 0,0 km/h (0 Bft) N 0 0 min 0,000 mm 0 W/m -5,2 C -4,1 C 0,0 km/h (0 Bft) 100 %
30.12.2016 21:40 -4,2 C -4,2 C -4,1 C 92 % 1037,8 hPa 0,0 l/m 0,0 km/h (0 Bft) N 0 0 min 0,000 mm 0 W/m -5,3 C -4,2 C 0,0 km/h (0 Bft) 100 %
30.12.2016 21:50 -4,2 C -4,2 C -4,2 C 92 % 1037,7 hPa 0,0 l/m 0,0 km/h (0 Bft) N 0 0 min 0,000 mm 0 W/m -5,3 C -4,2 C 0,0 km/h (0 Bft) 100 %
30.12.2016 22:00 -4,3 C -4,3 C -4,2 C 92 % 1037,6 hPa 0,0 l/m 0,0 km/h (0 Bft) N 0 0 min 0,000 mm 0 W/m -5,4 C -4,3 C 0,0 km/h (0 Bft) 100 %
30.12.2016 22:10 -4,4 C -4,4 C -4,3 C 92 % 1037,5 hPa 0,0 l/m 0,0 km/h (0 Bft) N 0 0 min 0,000 mm 0 W/m -5,5 C -4,4 C 0,0 km/h (0 Bft) 99 %
30.12.2016 22:20 -4,6 C -4,6 C -4,4 C 92 % 1037,5 hPa 0,0 l/m 0,0 km/h (0 Bft) N 0 0 min 0,000 mm 0 W/m -5,7 C -4,6 C 0,0 km/h (0 Bft) 100 %
30.12.2016 22:30 -4,7 C -4,7 C -4,6 C 92 % 1037,5 hPa 0,0 l/m 0,0 km/h (0 Bft) N 0 0 min 0,000 mm 0 W/m -5,8 C -4,7 C 0,0 km/h (0 Bft) 100 %
30.12.2016 22:40 -4,8 C -4,8 C -4,7 C 92 % 1037,5 hPa 0,0 l/m 0,0 km/h (0 Bft) N 0 0 min 0,000 mm 0 W/m -5,9 C -4,8 C 0,0 km/h (0 Bft) 100 %
30.12.2016 22:50 -4,9 C -4,9 C -4,8 C 92 % 1037,5 hPa 0,0 l/m 0,0 km/h (0 Bft) N 0 0 min 0,000 mm 0 W/m -6,0 C -4,9 C 0,0 km/h (0 Bft) 100 %
30.12.2016 23:00 -5,1 C -5,1 C -4,9 C 92 % 1037,6 hPa 0,0 l/m 0,0 km/h (0 Bft) N 0 0 min 0,000 mm 0 W/m -6,2 C -5,1 C 0,0 km/h (0 Bft) 100 %
30.12.2016 23:10 -5,1 C -5,1 C -5,1 C 92 % 1037,5 hPa 0,0 l/m 0,0 km/h (0 Bft) N 0 0 min 0,000 mm 0 W/m -6,2 C -5,1 C 0,0 km/h (0 Bft) 100 %
30.12.2016 23:20 -5,2 C -5,2 C -5,1 C 92 % 1037,7 hPa 0,0 l/m 0,0 km/h (0 Bft) N 0 0 min 0,000 mm 0 W/m -6,3 C -5,2 C 0,0 km/h (0 Bft) 100 %
30.12.2016 23:30 -5,3 C -5,3 C -5,2 C 92 % 1037,5 hPa 0,0 l/m 0,0 km/h (0 Bft) N 0 0 min 0,000 mm 0 W/m -6,4 C -5,3 C 0,0 km/h (0 Bft) 100 %
30.12.2016 23:40 -5,4 C -5,4 C -5,3 C 92 % 1037,5 hPa 0,0 l/m 0,0 km/h (0 Bft) N 0 0 min 0,000 mm 0 W/m -6,5 C -5,4 C 0,0 km/h (0 Bft) 100 %
30.12.2016 23:50 -5,4 C -5,4 C -5,3 C 92 % 1037,6 hPa 0,0 l/m 0,0 km/h (0 Bft) N 0 0 min 0,000 mm 0 W/m -6,5 C -5,4 C 0,0 km/h (0 Bft) 100 %
_ Min-Zeit 23:40 23:40 23:40 13:20 16:20 - 00:00 - - - - - 23:40 23:40 00:00 14:10
Minimum _ -5,4 C -5,4 C -5,3 C 75 % 1037,2 hPa - 0,0 km/h (0 Bft) - - - - - -6,5 C -5,4 C 0,0 km/h (0 Bft) 87 %
_ Max-Zeit 14:40 14:30 14:40 00:00 10:30 00:00 02:40 - - 10:00 13:00 12:30 12:40 12:50 02:40 00:00
Maximum _ 3,6 C 3,4 C 3,6 C 92 % 1039,5 hPa 0,0 l/m 1,6 km/h
N-NW (1 Bft)
- - 10 min 0,102 mm 302 W/m 0,0 C 3,5 C 6,4 km/h
N-NW (2 Bft)
100 %
Durchschnitt _ -1,9 C -2,0 C -1,8 C 89 % 1038,2 hPa #0,0 l/m 0,0 km/h (0 Bft) N-NW - #5:00 h #0,406 mm 168 W/m -3,5 C -1,9 C 0,4 km/h (0 Bft) 99 %
PRIVATE WETTERSTATION BILLIGHEIM-ALLFELD - www.neckar-odenwald-wetter.de - Holger Sonntag